Condiciones actuales en los principales Aeropuertos de España-Datos Metar

 

LEAL - Alicante
Actualización: 02/12/2022 20:00
Cubierto
Cubierto
 Viento del N
Viento: N 11 km/h
Temperatura: 13°C
Rocío: 9°C
Humedad: 77%
Barómetro: 1010 hPa
Nubosidad: Cubierto
Visibilidad: 10 km
Cloud details: Cubierto 1890 m
2022/12/02 19:00 LEAL 021900Z 01006KT 9999 OVC062 13/09 Q1010 NOSIG
LEAB - Albacete
Actualización: 02/12/2022 20:00
Mostly Cloudy
Mostly Cloudy
 Viento del varies
Viento: varies 4 km/h
Temperatura: 8°C
Rocío: 3°C
Humedad: 71%
Barómetro: 1011 hPa
Nubosidad: Mostly Cloudy
Visibilidad: 10 km
Cloud details: Mostly Cloudy 1219 m
2022/12/02 19:00 LEAB 021900Z VRB02KT 9999 BKN040 08/03 Q1011 NOSIG
LEAM - Almería
Actualización: 02/12/2022 20:00
Cubierto
Cubierto
 Viento del ONO
Viento: ONO 6 km/h
Temperatura: 15°C
Rocío: 9°C
Humedad: 68%
Barómetro: 1009 hPa
Nubosidad: Cubierto
Visibilidad: 10 km
Cloud details: Cubierto 2438 m
2022/12/02 19:00 LEAM 021900Z 30003KT 240V350 9999 OVC080 15/09 Q1009
 
LEAS - Asturias/Aviles
Actualización: 02/12/2022 20:00
Despejado
Despejado
 Viento del SE
Viento: SE 11 km/h
Temperatura: 8°C
Wind Chill: 6°C
Rocío: 3°C
Humedad: 71%
Barómetro: 1013 hPa
Resumen: Despejado
Visibilidad: greater than 10 km
2022/12/02 19:00 LEAS 021900Z 13006KT 090V160 CAVOK 08/03 Q1013 NOSIG
LEBZ - Badajoz/Talavera la Real
Actualización: 02/12/2022 20:00
Despejado
Despejado
 Viento del calm
Viento: Calma
Temperatura: 9°C
Rocío: 7°C
Humedad: 87%
Barómetro: 1009 hPa
Resumen: Despejado
Visibilidad: greater than 10 km
2022/12/02 19:00 LEBZ 021900Z 00000KT CAVOK 09/07 Q1009
LEBL - Barcelona
Actualización: 02/12/2022 20:00
Partly Cloudy
Partly Cloudy
 Viento del NNO
Viento: NNO 11 km/h
Temperatura: 10°C
Wind Chill: 8°C
Rocío: 4°C
Humedad: 67%
Barómetro: 1012 hPa
Nubosidad: Partly Cloudy
Visibilidad: 10 km
Cloud details: Partly Cloudy 1951 m
2022/12/02 19:00 LEBL 021900Z 33006KT 9999 SCT064 10/04 Q1012 NOSIG
 
LEBB - Bilbao
Actualización: 02/12/2022 20:00
Cubierto
Cubierto
 Viento del calm
Viento: Calma
Temperatura: 8°C
Rocío: 5°C
Humedad: 82%
Barómetro: 1014 hPa
Nubosidad: Cubierto
Visibilidad: 10 km
Cloud details: Cubierto 1463 m
2022/12/02 19:00 LEBB 021900Z 00000KT 9999 OVC048 08/05 Q1014 NOSIG
LEBG - Burgos/Villafría
Actualización: 02/12/2022 20:00
Despejado
Despejado
 Viento del varies
Viento: varies 4 km/h
Temperatura: 0°C
Rocío: -2°C
Humedad: 87%
Barómetro: 1011 hPa
Resumen: Despejado
Visibilidad: greater than 10 km
2022/12/02 19:00 LEBG 021900Z VRB02KT CAVOK 00/M02 Q1011
LEBA - Córdoba
Actualización: 02/12/2022 20:00
Few Clouds
Few Clouds
 Viento del calm
Viento: Calma
Temperatura: 8°C
Rocío: 3°C
Humedad: 71%
Barómetro: 1009 hPa
Nubosidad: Few Clouds
Visibilidad: 10 km
Cloud details: Few Clouds 914 m
2022/12/02 19:00 LEBA 021900Z 00000KT 9999 FEW030 08/03 Q1009
 
LEGE - Gerona
Actualización: 02/12/2022 20:00
Despejado
Despejado
 Viento del N
Viento: N 9 km/h
Temperatura: 7°C
Wind Chill: 6°C
Rocío: 3°C
Humedad: 76%
Barómetro: 1013 hPa
Resumen: Despejado
Visibilidad: greater than 10 km
2022/12/02 19:00 LEGE 021900Z 36005KT 330V030 CAVOK 07/03 Q1013
LEGR - Granada
Actualización: 02/12/2022 20:00
Few Clouds
Few Clouds
 Viento del O
Viento: O 6 km/h
Temperatura: 8°C
Rocío: 4°C
Humedad: 76%
Barómetro: 1009 hPa
Nubosidad: Few Clouds
Visibilidad: 10 km
Cloud details: Few Clouds 1524 m
2022/12/02 19:00 LEGR 021900Z 27003KT 230V350 9999 FEW050 08/04 Q1009
GCHI - Hierro
Actualización: 02/12/2022 20:00
Mostly Cloudy
Mostly Cloudy
 Viento del N
Viento: N 24 km/h
Temperatura: 19°C
Rocío: 18°C
Humedad: 94%
Barómetro: 1012 hPa
Nubosidad: Mostly Cloudy
Visibilidad: 7 km
Cloud details: Partly Cloudy 213 m
Mostly Cloudy 427 m
Mostly Cloudy 640 m
2022/12/02 19:00 GCHI 021900Z AUTO 35013KT 7000 SCT007 BKN014 BKN021 19/18 Q1012
 
LEIB - Ibiza
Actualización: 02/12/2022 20:00
Lluvia débil, Showers, Muy nuboso
Lluvia débil, Showers, Muy nuboso
 Viento del varies
Viento: varies 4 km/h
Temperatura: 12°C
Rocío: 11°C
Humedad: 94%
Barómetro: 1009 hPa
Resumen: Lluvia débil, Showers
Nubosidad: Mostly Cloudy
Visibilidad: 5 km
Cloud details: Few Clouds 366 m
Few Clouds 610 m
Mostly Cloudy 914 m
2022/12/02 19:00 LEIB 021900Z VRB02KT 5000 -SHRA FEW012 FEW020TCU BKN030 12/11 Q1009 RESHRA NOSIG
LEJR - Jerez de la Frontera
Actualización: 02/12/2022 20:30
Few Clouds
Few Clouds
 Viento del S
Viento: S 9 km/h
Temperatura: 13°C
Rocío: 9°C
Humedad: 77%
Barómetro: 1009 hPa
Nubosidad: Few Clouds
Visibilidad: 10 km
Cloud details: Few Clouds 1372 m
2022/12/02 19:30 LEJR 021930Z 19005KT 9999 FEW045 13/09 Q1009
LECO - A Coruña
Actualización: 02/12/2022 20:00
Despejado
Despejado
 Viento del ESE
Viento: ESE 6 km/h
Temperatura: 9°C
Rocío: 3°C
Humedad: 66%
Barómetro: 1011 hPa
Resumen: Despejado
Visibilidad: greater than 10 km
2022/12/02 19:00 LECO 021900Z 12003KT CAVOK 09/03 Q1011 NOSIG
 
GCLA - La Palma
Actualización: 02/12/2022 20:00
Mostly Cloudy
Mostly Cloudy
 Viento del NNE
Viento: NNE 33 km/h
Temperatura: 20°C
Rocío: 17°C
Humedad: 83%
Barómetro: 1012 hPa
Nubosidad: Mostly Cloudy
Visibilidad: 10 km
Cloud details: Partly Cloudy 762 m
Mostly Cloudy 1524 m
2022/12/02 19:00 GCLA 021900Z 03018KT 010V070 9999 SCT025 BKN050 20/17 Q1012
GCRR - Lanzarote
Actualización: 02/12/2022 20:00
Mostly Cloudy
Mostly Cloudy
 Viento del NNO
Viento: NNO 11 km/h
Temperatura: 21°C
Rocío: 16°C
Humedad: 73%
Barómetro: 1011 hPa
Nubosidad: Mostly Cloudy
Visibilidad: 10 km
Cloud details: Mostly Cloudy 1036 m
2022/12/02 19:00 GCRR 021900Z 34006KT 300V040 9999 BKN034 21/16 Q1011
GCLP - Las Palmas
Actualización: 02/12/2022 20:00
Few Clouds
Few Clouds
 Viento del N
Viento: N 20 km/h
Temperatura: 20°C
Rocío: 15°C
Humedad: 73%
Barómetro: 1011 hPa
Nubosidad: Few Clouds
Visibilidad: 10 km
Cloud details: Few Clouds 914 m
2022/12/02 19:00 GCLP 021900Z 35011KT 9999 FEW030 20/15 Q1011 NOSIG
 
LELN - León
Actualización: 02/12/2022 20:00
Despejado
Despejado
 Viento del ONO
Viento: ONO 6 km/h
Temperatura: -4°C
Rocío: -5°C
Humedad: 93%
Barómetro: 1011 hPa
Resumen: Despejado
Visibilidad: greater than 10 km
2022/12/02 19:00 LELN 021900Z 29003KT CAVOK M04/M05 Q1011
LELO - Logroño
Actualización: 02/12/2022 20:00
Few Clouds
Few Clouds
 Viento del varies
Viento: varies 4 km/h
Temperatura: 1°C
Rocío: -1°C
Humedad: 87%
Barómetro: 1013 hPa
Nubosidad: Few Clouds
Visibilidad: 10 km
Cloud details: Few Clouds 1219 m
2022/12/02 19:00 LELO 021900Z VRB02KT 9999 FEW040 01/M01 Q1013
LECV - Madrid/Colmenar
Actualización: 02/12/2022 19:00
NO Actualizado
Mostly Cloudy
Mostly Cloudy
 Viento del calm
Viento: Calma
Temperatura: 5°C
Rocío: 2°C
Humedad: 81%
Barómetro: 1011 hPa
Nubosidad: Mostly Cloudy
Visibilidad: 10 km
Cloud details: Mostly Cloudy 914 m
2022/12/02 18:00 LECV 021800Z 00000KT 9999 BKN030 05/02 Q1011
 
LEMD - Madrid/Barajas
Actualización: 02/12/2022 20:00
Few Clouds
Few Clouds
 Viento del N
Viento: N 4 km/h
Temperatura: 5°C
Rocío: 2°C
Humedad: 81%
Barómetro: 1011 hPa
Nubosidad: Few Clouds
Visibilidad: 10 km
Cloud details: Few Clouds 1067 m
2022/12/02 19:00 LEMD 021900Z 35002KT 9999 FEW035 05/02 Q1011 NOSIG
LEVS - Madrid/Cuatro Vientos
Actualización: 02/12/2022 20:00
Few Clouds
Few Clouds
 Viento del N
Viento: N 4 km/h
Temperatura: 6°C
Rocío: 3°C
Humedad: 81%
Barómetro: 1011 hPa
Nubosidad: Few Clouds
Visibilidad: 10 km
Cloud details: Few Clouds 1067 m
2022/12/02 19:00 LEVS 021900Z 36002KT 9999 FEW035 06/03 Q1011
LEGT - Madrid/Getafe
Actualización: 02/12/2022 19:00
NO Actualizado
Few Clouds
Few Clouds
 Viento del varies
Viento: varies 2 km/h
Temperatura: 8°C
Rocío: 3°C
Humedad: 71%
Barómetro: 1011 hPa
Nubosidad: Few Clouds
Visibilidad: 10 km
Cloud details: Few Clouds 1067 m
2022/12/02 18:00 LEGT 021800Z VRB01KT 9999 FEW035 08/03 Q1011
 
LETO - Madrid/Torrejón
Actualización: 02/12/2022 20:00
Partly Cloudy
Partly Cloudy
 Viento del NNE
Viento: NNE 7 km/h
Temperatura: 4°C
Wind Chill: 2°C
Rocío: 1°C
Humedad: 81%
Barómetro: 1011 hPa
Nubosidad: Partly Cloudy
Visibilidad: 10 km
Cloud details: Partly Cloudy 1067 m
2022/12/02 19:00 LETO 021900Z 02004KT 9999 SCT035 04/01 Q1011 NOSIG
LEMG - Málaga
Actualización: 02/12/2022 20:00
Few Clouds
Few Clouds
 Viento del E
Viento: E 7 km/h
Temperatura: 14°C
Rocío: 10°C
Humedad: 77%
Barómetro: 1010 hPa
Nubosidad: Few Clouds
Visibilidad: 10 km
Cloud details: Few Clouds 1981 m
2022/12/02 19:00 LEMG 021900Z 08004KT 050V130 9999 FEW065 14/10 Q1010 NOSIG
GEML - Melilla
Actualización: 02/12/2022 20:00
Lluvia débil, Parcialmente nublado
Lluvia débil, Parcialmente nublado
 Viento del O
Viento: O 7 km/h
Temperatura: 13°C
Rocío: 12°C
Humedad: 94%
Barómetro: 1010 hPa
Resumen: Light Rain
Nubosidad: Partly Cloudy
Visibilidad: 10 km
2022/12/02 19:00 GEML 021900Z AUTO 26004KT 230V300 9999 -RA NSC 13/12 Q1010
 
LEMH - Mahón
Actualización: 02/12/2022 20:00
Partly Cloudy
Partly Cloudy
 Viento del N
Viento: N 9 km/h
Temperatura: 12°C
Rocío: 10°C
Humedad: 88%
Barómetro: 1009 hPa
Nubosidad: Partly Cloudy
Visibilidad: 10 km
Cloud details: Few Clouds 914 m
Partly Cloudy 1494 m
2022/12/02 19:00 LEMH 021900Z 35005KT 9999 FEW030 SCT049 12/10 Q1009
LEMO - Morón de La Frontera
Actualización: 02/12/2022 20:30
Despejado
Despejado
 Viento del S
Viento: S 9 km/h
Temperatura: 10°C
Wind Chill: 9°C
Rocío: 6°C
Humedad: 76%
Barómetro: 1009 hPa
Resumen: Despejado
Visibilidad: greater than 10 km
2022/12/02 19:30 LEMO 021930Z 17005KT CAVOK 10/06 Q1009 NOSIG
LEMI - Murcia/Corvera
Actualización: 02/12/2022 20:00
Few Clouds
Few Clouds
 Viento del NNO
Viento: NNO 20 km/h
Temperatura: 11°C
Rocío: 6°C
Humedad: 72%
Barómetro: 1010 hPa
Nubosidad: Few Clouds
Visibilidad: 10 km
Cloud details: Few Clouds 762 m
2022/12/02 19:00 LEMI 021900Z 34011KT 9999 FEW025 11/06 Q1010
 
LERI - Murcia/Alcantarilla
Actualización: 02/12/2022 19:00
NO Actualizado
Mostly Cloudy
Mostly Cloudy
 Viento del NNO
Viento: NNO 13 km/h
Temperatura: 13°C
Rocío: 6°C
Humedad: 63%
Barómetro: 1010 hPa
Nubosidad: Mostly Cloudy
Visibilidad: 10 km
Cloud details: Mostly Cloudy 1189 m
2022/12/02 18:00 LERI 021800Z 33007KT 9999 BKN039 13/06 Q1010 NOSIG
LELC - Murcia/San Javier
Actualización: 02/12/2022 20:00
Few Clouds
Few Clouds
 Viento del NNO
Viento: NNO 9 km/h
Temperatura: 12°C
Rocío: 9°C
Humedad: 82%
Barómetro: 1009 hPa
Nubosidad: Few Clouds
Visibilidad: 10 km
Cloud details: Few Clouds 1372 m
2022/12/02 19:00 LELC 021900Z 33005KT 300V360 9999 FEW045 12/09 Q1009 NOSIG
LEPA - Palma de Mallorca
Actualización: 02/12/2022 20:15
Lluvia débil, Muy nuboso
Lluvia débil, Muy nuboso
 Viento del ENE
Viento: ENE 7 km/h
Temperatura: 12°C
Rocío: 11°C
Humedad: 94%
Barómetro: 1010 hPa
Resumen: Light Rain
Nubosidad: Mostly Cloudy
Visibilidad: 10 km
Cloud details: Partly Cloudy 610 m
Mostly Cloudy 1829 m
2022/12/02 19:15 LEPA 021915Z 06004KT 020V080 9999 -RA SCT020 BKN060 12/11 Q1010 RERA NOSIG
 
LEPP - Pamplona
Actualización: 02/12/2022 20:00
Partly Cloudy
Partly Cloudy
 Viento del SSE
Viento: SSE 7 km/h
Temperatura: 4°C
Wind Chill: 2°C
Rocío: 2°C
Humedad: 87%
Barómetro: 1012 hPa
Nubosidad: Partly Cloudy
Visibilidad: 10 km
Cloud details: Partly Cloudy 1158 m
2022/12/02 19:00 LEPP 021900Z 16004KT 9999 SCT038 04/02 Q1012
LERS - Reus
Actualización: 02/12/2022 20:00
Few Clouds
Few Clouds
 Viento del N
Viento: N 11 km/h
Temperatura: 8°C
Wind Chill: 6°C
Rocío: 3°C
Humedad: 71%
Barómetro: 1012 hPa
Nubosidad: Few Clouds
Visibilidad: 10 km
Cloud details: Few Clouds 914 m
2022/12/02 19:00 LERS 021900Z 36006KT 9999 FEW030 08/03 Q1012
LERT - Rota
Actualización: 02/12/2022 20:00
Lluvia débil, Parcialmente nublado
Lluvia débil, Parcialmente nublado
 Viento del ESE
Viento: ESE 13 km/h
Temperatura: 15°C
Rocío: 11°C
Humedad: 77%
Barómetro: 1009 hPa
Resumen: Light Rain
Nubosidad: Partly Cloudy
Visibilidad: 10 km
Cloud details: Partly Cloudy 975 m
Partly Cloudy 1341 m
2022/12/02 19:00 LERT 021900Z 11007KT 9999 -RA SCT032 SCT044 15/11 Q1009 NOSIG
 
LELL - Sabadell
Actualización: 02/12/2022 20:00
Despejado
Despejado
 Viento del N
Viento: N 7 km/h
Temperatura: 9°C
Wind Chill: 8°C
Rocío: 2°C
Humedad: 62%
Barómetro: 1012 hPa
Nubosidad: Despejado
Visibilidad: 9 km
2022/12/02 19:00 LELL 021900Z AUTO 36004KT 290V060 9000 NCD 09/02 Q1012
LESA - Salamanca
Actualización: 02/12/2022 20:00
Freezing fog, Cubierto
Freezing fog, Cubierto
 Viento del SSE
Viento: SSE 6 km/h
Temperatura: 0°C
Rocío: 0°C
Humedad: 100%
Barómetro: 1011 hPa
Resumen: Freezing Fog
Nubosidad: Cubierto
Visibilidad: 0 km
Cloud details: Cubierto 30 m
2022/12/02 19:00 LESA 021900Z AUTO 16003KT 140V200 0150 R21/0550N FZFG VV001 M00/M00 Q1011
LESO - San Sebastián
Actualización: 02/12/2022 20:00
Cubierto
Cubierto
 Viento del varies
Viento: varies 4 km/h
Temperatura: 8°C
Rocío: 5°C
Humedad: 82%
Barómetro: 1014 hPa
Nubosidad: Cubierto
Visibilidad: 10 km
Cloud details: Cubierto 1524 m
2022/12/02 19:00 LESO 021900Z VRB02KT 9999 OVC050 08/05 Q1014
 
LEXJ - Santander
Actualización: 02/12/2022 20:00
Few Clouds
Few Clouds
 Viento del ESE
Viento: ESE 9 km/h
Temperatura: 7°C
Wind Chill: 6°C
Rocío: 2°C
Humedad: 71%
Barómetro: 1014 hPa
Nubosidad: Few Clouds
Visibilidad: 10 km
Cloud details: Few Clouds 1676 m
2022/12/02 19:00 LEXJ 021900Z 12005KT 9999 FEW055 07/02 Q1014
LEPA - Palma de Mallorca
Actualización: 02/12/2022 20:15
Lluvia débil, Muy nuboso
Lluvia débil, Muy nuboso
 Viento del ENE
Viento: ENE 7 km/h
Temperatura: 12°C
Rocío: 11°C
Humedad: 94%
Barómetro: 1010 hPa
Resumen: Light Rain
Nubosidad: Mostly Cloudy
Visibilidad: 10 km
Cloud details: Partly Cloudy 610 m
Mostly Cloudy 1829 m
2022/12/02 19:15 LEPA 021915Z 06004KT 020V080 9999 -RA SCT020 BKN060 12/11 Q1010 RERA NOSIG
LEPP - Pamplona
Actualización: 02/12/2022 20:00
Partly Cloudy
Partly Cloudy
 Viento del SSE
Viento: SSE 7 km/h
Temperatura: 4°C
Wind Chill: 2°C
Rocío: 2°C
Humedad: 87%
Barómetro: 1012 hPa
Nubosidad: Partly Cloudy
Visibilidad: 10 km
Cloud details: Partly Cloudy 1158 m
2022/12/02 19:00 LEPP 021900Z 16004KT 9999 SCT038 04/02 Q1012
 
LEST - Santiago de Compostela
Actualización: 02/12/2022 20:00
Despejado
Despejado
 Viento del ESE
Viento: ESE 9 km/h
Temperatura: 7°C
Wind Chill: 6°C
Rocío: 3°C
Humedad: 76%
Barómetro: 1010 hPa
Resumen: Despejado
Visibilidad: greater than 10 km
2022/12/02 19:00 LEST 021900Z 12005KT CAVOK 07/03 Q1010 NOSIG
LEZL - Sevilla
Actualización: 02/12/2022 20:00
Despejado
Despejado
 Viento del calm
Viento: Calma
Temperatura: 11°C
Rocío: 8°C
Humedad: 82%
Barómetro: 1009 hPa
Resumen: Despejado
Visibilidad: greater than 10 km
2022/12/02 19:00 LEZL 021900Z 00000KT CAVOK 11/08 Q1009 NOSIG
GCXO - Tenerife
Actualización: 02/12/2022 20:00
Mostly Cloudy
Mostly Cloudy
 Viento del ONO
Viento: ONO 33 km/h
Temperatura: 15°C
Rocío: 14°C
Humedad: 94%
Barómetro: 1013 hPa
Nubosidad: Mostly Cloudy
Visibilidad: 9 km
Cloud details: Few Clouds 91 m
Mostly Cloudy 335 m
Mostly Cloudy 518 m
2022/12/02 19:00 GCXO 021900Z 30018KT 260V320 9000 FEW003 BKN011 BKN017 15/14 Q1013 NOSIG
 
GCTS - Tenerife-Sur
Actualización: 02/12/2022 20:00
Mostly Cloudy
Mostly Cloudy
 Viento del ESE
Viento: ESE 7 km/h
Temperatura: 21°C
Rocío: 15°C
Humedad: 69%
Barómetro: 1011 hPa
Nubosidad: Mostly Cloudy
Visibilidad: 10 km
Cloud details: Few Clouds 701 m
Mostly Cloudy 1067 m
2022/12/02 19:00 GCTS 021900Z 12004KT 090V150 9999 FEW023 BKN035 21/15 Q1011 NOSIG
LEVC - Valencia
Actualización: 02/12/2022 20:00
Mostly Cloudy
Mostly Cloudy
 Viento del NNE
Viento: NNE 9 km/h
Temperatura: 12°C
Rocío: 5°C
Humedad: 63%
Barómetro: 1012 hPa
Nubosidad: Mostly Cloudy
Visibilidad: 10 km
Cloud details: Mostly Cloudy 1829 m
2022/12/02 19:00 LEVC 021900Z 03005KT 350V060 9999 BKN060 12/05 Q1012 NOSIG
LEVD - Valladolid
Actualización: 02/12/2022 20:00
Despejado
Despejado
 Viento del NNE
Viento: NNE 9 km/h
Temperatura: 0°C
Wind Chill: -3°C
Rocío: -2°C
Humedad: 87%
Barómetro: 1011 hPa
Resumen: Despejado
Visibilidad: greater than 10 km
2022/12/02 19:00 LEVD 021900Z 03005KT CAVOK 00/M02 Q1011
 
LEVX - Vigo
Actualización: 02/12/2022 20:00
Despejado
Despejado
 Viento del SO
Viento: SO 7 km/h
Temperatura: 7°C
Wind Chill: 6°C
Rocío: 4°C
Humedad: 81%
Barómetro: 1010 hPa
Resumen: Despejado
Visibilidad: greater than 10 km
2022/12/02 19:00 LEVX 021900Z 22004KT 170V260 CAVOK 07/04 Q1010 NOSIG
LEVT - Vitoria
Actualización: 02/12/2022 20:00
Mostly Cloudy
Mostly Cloudy
 Viento del NNE
Viento: NNE 9 km/h
Temperatura: 5°C
Wind Chill: 3°C
Rocío: 2°C
Humedad: 81%
Barómetro: 1013 hPa
Nubosidad: Mostly Cloudy
Visibilidad: 10 km
Cloud details: Mostly Cloudy 1036 m
2022/12/02 19:00 LEVT 021900Z 02005KT 350V050 9999 BKN034 05/02 Q1013
LEZG - Zaragoza
Actualización: 02/12/2022 20:00
Despejado
Despejado
 Viento del SO
Viento: SO 9 km/h
Temperatura: 5°C
Wind Chill: 3°C
Rocío: 2°C
Humedad: 81%
Barómetro: 1013 hPa
Resumen: Despejado
Visibilidad: greater than 10 km
2022/12/02 19:00 LEZG 021900Z 22005KT CAVOK 05/02 Q1013

La estación de MeteoMurcia.com, publica sus datos en los siguientes proyectos:

Weather Underground PWS IMURCIAP2 Meteoclimatic www.awekas.at

Web Analytics

Clicky